Royalton, New York
Current Conditions -  °F | °C
As of 6:54 PM on Tuesday 25 Nov 2014 (Local Time) from KBUF Reporting Station
Light Snow Light Snow  
Wind Chill: 24°   Ceiling: 2000
Heat Index: 34°   Visibility: 7mi
Dew Point: 27°   Wind: 15mph
Humidity: 75%   Direction: 280°W
Pressure: 30.1"   Gusts: 24mph
Location:  43.1953°N, 78.4825°W
Report Text: KBUF 252354Z 28013G21KT 7SM -SN BKN020 BKN026 OVC030 01/M03 A3010 RMK AO2 SLP199 PCPN VRY LGT P0000 60000 T00111028 10044 20011 51038
Loading
Personal Weather Stations






























Interactive Weather Map New forecast layout! Learn more

10-Day Weather Forecast

Advertisements
Track Severe Weather on mobile